createdAt,value
2022-07-29T00:00:14.146Z,101853.09
2022-07-29T00:00:45.789Z,101851.13
2022-07-29T00:01:19.020Z,101846.41
2022-07-29T00:01:53.294Z,101841.66
2022-07-29T00:02:24.758Z,101849.16
2022-07-29T00:02:56.317Z,101845.63
2022-07-29T00:03:27.757Z,101850.34
2022-07-29T00:03:59.193Z,101848.78
2022-07-29T00:04:30.753Z,101845.22
2022-07-29T00:05:02.974Z,101848.34
2022-07-29T00:05:54.120Z,101846.75
2022-07-29T00:06:25.720Z,101845.19
2022-07-29T00:06:57.192Z,101846.00
2022-07-29T00:07:28.643Z,101844.81
2022-07-29T00:08:00.110Z,101838.53
2022-07-29T00:08:31.514Z,101835.34
2022-07-29T00:09:03.234Z,101837.34
2022-07-29T00:09:50.962Z,101838.13
2022-07-29T00:11:13.680Z,101838.91
2022-07-29T00:11:45.128Z,101834.19
2022-07-29T00:12:16.553Z,101831.81
2022-07-29T00:12:56.482Z,101834.56
2022-07-29T00:13:50.895Z,101831.44
2022-07-29T00:14:22.603Z,101836.13
2022-07-29T00:14:56.299Z,101835.34
2022-07-29T00:15:28.267Z,101829.47
2022-07-29T00:16:04.477Z,101839.28
2022-07-29T00:16:55.366Z,101834.56
2022-07-29T00:17:45.482Z,101830.25
2022-07-29T00:19:05.955Z,101832.22
2022-07-29T00:19:39.365Z,101831.06
2022-07-29T00:20:14.190Z,101827.91
2022-07-29T00:20:45.557Z,101824.34
2022-07-29T00:21:16.954Z,101825.94
2022-07-29T00:21:48.525Z,101831.84
2022-07-29T00:22:20.784Z,101829.47
2022-07-29T00:22:52.920Z,101829.47
2022-07-29T00:23:24.291Z,101829.84
2022-07-29T00:23:55.692Z,101830.66
2022-07-29T00:24:27.088Z,101827.50
2022-07-29T00:24:58.441Z,101825.94
2022-07-29T00:25:29.909Z,101825.53
2022-07-29T00:26:02.174Z,101825.91
2022-07-29T00:26:33.667Z,101823.56
2022-07-29T00:27:05.072Z,101819.22
2022-07-29T00:27:37.379Z,101813.72
2022-07-29T00:28:08.767Z,101824.34
2022-07-29T00:28:40.261Z,101814.13
2022-07-29T00:29:33.759Z,101819.25
2022-07-29T00:30:04.743Z,101825.53
2022-07-29T00:30:36.170Z,101814.13
2022-07-29T00:31:08.935Z,101817.28
2022-07-29T00:31:40.486Z,101816.47
2022-07-29T00:32:30.328Z,101816.88
2022-07-29T00:33:01.759Z,101816.47
2022-07-29T00:33:33.160Z,101818.84
2022-07-29T00:34:04.644Z,101810.19
2022-07-29T00:34:54.732Z,101808.22
2022-07-29T00:35:44.581Z,101808.63
2022-07-29T00:36:15.956Z,101810.59
2022-07-29T00:36:47.364Z,101804.69
2022-07-29T00:37:18.727Z,101808.22
2022-07-29T00:37:50.350Z,101807.44
2022-07-29T00:38:21.996Z,101800.34
2022-07-29T00:38:54.132Z,101810.19
2022-07-29T00:39:25.626Z,101805.06
2022-07-29T00:39:58.898Z,101809.78
2022-07-29T00:40:48.681Z,101796.03
2022-07-29T00:41:20.158Z,101799.56
2022-07-29T00:41:51.605Z,101798.78
2022-07-29T00:42:23.004Z,101798.38
2022-07-29T00:42:54.676Z,101798.38
2022-07-29T00:43:26.037Z,101803.50
2022-07-29T00:43:57.598Z,101792.88
2022-07-29T00:44:28.984Z,101798.38
2022-07-29T00:45:00.350Z,101793.28
2022-07-29T00:45:32.003Z,101798.78
2022-07-29T00:46:03.376Z,101804.69
2022-07-29T00:46:34.851Z,101803.09
2022-07-29T00:47:07.035Z,101802.31
2022-07-29T00:47:38.561Z,101799.97
2022-07-29T00:48:10.265Z,101801.94
2022-07-29T00:48:41.660Z,101797.19
2022-07-29T00:49:32.009Z,101800.75
2022-07-29T00:50:06.308Z,101799.16
2022-07-29T00:50:38.299Z,101802.31
2022-07-29T00:51:11.136Z,101807.03
2022-07-29T00:51:42.580Z,101801.91
2022-07-29T00:52:15.536Z,101797.19
2022-07-29T00:52:48.877Z,101799.16
2022-07-29T00:53:21.103Z,101795.22
2022-07-29T00:53:53.661Z,101797.59
2022-07-29T00:54:25.123Z,101793.66
2022-07-29T00:54:57.361Z,101795.63
2022-07-29T00:55:29.926Z,101799.16
2022-07-29T00:56:01.424Z,101798.38
2022-07-29T00:56:33.891Z,101794.84
2022-07-29T00:57:07.611Z,101790.13
2022-07-29T00:57:41.051Z,101792.88
2022-07-29T00:58:14.808Z,101790.50
2022-07-29T00:58:49.132Z,101796.81
2022-07-29T00:59:20.706Z,101795.22
2022-07-29T00:59:52.310Z,101783.03
2022-07-29T01:00:45.473Z,101788.53
2022-07-29T01:01:17.131Z,101797.97
2022-07-29T01:01:48.635Z,101792.09
2022-07-29T01:02:20.129Z,101788.16
2022-07-29T01:02:51.833Z,101782.25
2022-07-29T01:03:23.186Z,101795.22
2022-07-29T01:03:54.661Z,101790.50
2022-07-29T01:04:26.588Z,101792.84
2022-07-29T01:04:58.523Z,101796.78
2022-07-29T01:05:50.308Z,101790.09
2022-07-29T01:06:23.489Z,101791.69
2022-07-29T01:06:55.611Z,101790.50
2022-07-29T01:07:28.341Z,101796.78
2022-07-29T01:08:00.821Z,101789.34
2022-07-29T01:08:33.988Z,101791.69
2022-07-29T01:09:05.849Z,101797.59
2022-07-29T01:09:45.981Z,101785.78
2022-07-29T01:10:20.617Z,101791.28
2022-07-29T01:10:53.072Z,101782.66
2022-07-29T01:11:26.632Z,101786.56
2022-07-29T01:11:59.117Z,101793.66
2022-07-29T01:12:34.768Z,101784.59
2022-07-29T01:13:08.441Z,101777.91
2022-07-29T01:13:40.233Z,101785.78
2022-07-29T01:14:12.666Z,101781.84
2022-07-29T01:14:44.520Z,101785.78
2022-07-29T01:15:16.259Z,101776.72
2022-07-29T01:15:56.994Z,101781.47
2022-07-29T01:16:33.784Z,101778.72
2022-07-29T01:17:13.574Z,101777.91
2022-07-29T01:17:52.760Z,101776.34
2022-07-29T01:18:32.702Z,101782.22
2022-07-29T01:19:24.063Z,101788.91
2022-07-29T01:20:14.352Z,101783.41
2022-07-29T01:21:19.890Z,101781.47
2022-07-29T01:21:56.047Z,101783.41
2022-07-29T01:22:37.481Z,101777.13
2022-07-29T01:23:29.448Z,101783.00
2022-07-29T01:24:29.712Z,101777.50
2022-07-29T01:25:21.145Z,101784.59
2022-07-29T01:26:34.238Z,101781.06
2022-07-29T01:27:28.572Z,101777.13
2022-07-29T01:28:01.281Z,101782.63
2022-07-29T01:29:09.933Z,101779.47
2022-07-29T01:29:48.844Z,101780.66
2022-07-29T01:30:23.533Z,101775.16
2022-07-29T01:30:57.438Z,101777.13
2022-07-29T01:31:40.339Z,101779.84
2022-07-29T01:32:34.295Z,101772.38
2022-07-29T01:33:46.057Z,101780.22
2022-07-29T01:34:28.799Z,101781.41
2022-07-29T01:35:07.651Z,101775.91
2022-07-29T01:35:43.698Z,101768.44
2022-07-29T01:36:19.634Z,101781.00
2022-07-29T01:37:12.736Z,101780.22
2022-07-29T01:37:49.952Z,101771.97
2022-07-29T01:38:42.341Z,101781.00
2022-07-29T01:39:20.766Z,101777.09
2022-07-29T01:39:55.032Z,101777.09
2022-07-29T01:40:32.004Z,101770.00
2022-07-29T01:41:09.666Z,101771.59
2022-07-29T01:41:51.665Z,101778.25
2022-07-29T01:42:36.386Z,101777.09
2022-07-29T01:43:12.303Z,101774.72
2022-07-29T01:43:56.217Z,101780.59
2022-07-29T01:45:02.691Z,101775.50
2022-07-29T01:45:52.767Z,101776.69
2022-07-29T01:46:47.104Z,101778.66
2022-07-29T01:47:24.351Z,101782.56
2022-07-29T01:47:55.677Z,101781.00
2022-07-29T01:48:35.873Z,101784.09
2022-07-29T01:50:09.432Z,101792.75
2022-07-29T01:50:48.200Z,101791.56
2022-07-29T01:51:25.273Z,101784.09
2022-07-29T01:52:12.168Z,101781.75
2022-07-29T01:52:49.022Z,101783.31
2022-07-29T01:53:38.018Z,101794.31
2022-07-29T01:54:35.339Z,101787.66
2022-07-29T01:55:14.469Z,101784.50
2022-07-29T01:55:46.942Z,101782.53
2022-07-29T01:56:39.662Z,101780.97
2022-07-29T01:57:14.945Z,101785.28
2022-07-29T01:57:50.038Z,101783.31
2022-07-29T01:58:22.642Z,101788.47
2022-07-29T01:58:55.438Z,101786.06
2022-07-29T01:59:27.204Z,101782.13
2022-07-29T02:00:01.700Z,101784.88
2022-07-29T02:00:35.259Z,101786.47
2022-07-29T02:01:25.967Z,101787.66
2022-07-29T02:01:59.751Z,101784.91
2022-07-29T02:02:33.579Z,101789.59
2022-07-29T02:03:09.824Z,101788.81
2022-07-29T02:03:45.760Z,101775.84
2022-07-29T02:04:29.482Z,101786.84
2022-07-29T02:05:03.308Z,101779.78
2022-07-29T02:05:37.036Z,101780.16
2022-07-29T02:06:11.674Z,101779.38
2022-07-29T02:06:45.244Z,101777.78
2022-07-29T02:07:20.842Z,101786.44
2022-07-29T02:07:54.808Z,101776.63
2022-07-29T02:08:29.161Z,101778.56
2022-07-29T02:09:03.127Z,101778.59
2022-07-29T02:09:37.257Z,101777.03
2022-07-29T02:10:11.049Z,101782.13
2022-07-29T02:11:02.022Z,101779.38
2022-07-29T02:11:34.339Z,101778.59
2022-07-29T02:12:08.278Z,101784.50
2022-07-29T02:12:41.501Z,101786.47
2022-07-29T02:13:15.066Z,101784.50
2022-07-29T02:13:49.676Z,101784.50
2022-07-29T02:14:23.313Z,101782.91
2022-07-29T02:14:57.993Z,101789.59
2022-07-29T02:15:32.923Z,101780.16
2022-07-29T02:16:07.926Z,101786.47
2022-07-29T02:16:41.691Z,101780.16
2022-07-29T02:17:32.564Z,101780.16
2022-07-29T02:18:18.164Z,101779.00
2022-07-29T02:18:53.424Z,101783.72
2022-07-29T02:19:46.381Z,101782.91
2022-07-29T02:20:18.260Z,101780.16
2022-07-29T02:20:53.189Z,101776.63
2022-07-29T02:21:27.684Z,101784.09
2022-07-29T02:22:19.121Z,101776.63
2022-07-29T02:23:11.800Z,101778.59
2022-07-29T02:24:53.656Z,101779.78
2022-07-29T02:25:25.882Z,101775.03
2022-07-29T02:26:09.867Z,101775.81
2022-07-29T02:26:43.934Z,101777.00
2022-07-29T02:27:16.096Z,101778.97
2022-07-29T02:27:49.993Z,101778.19
2022-07-29T02:28:25.080Z,101778.97
2022-07-29T02:28:58.269Z,101775.44
2022-07-29T02:30:45.470Z,101774.25
2022-07-29T02:31:19.895Z,101774.63
2022-07-29T02:31:53.483Z,101777.38
2022-07-29T02:32:28.108Z,101773.06
2022-07-29T02:33:00.188Z,101774.63
2022-07-29T02:33:33.206Z,101771.09
2022-07-29T02:34:24.156Z,101769.53
2022-07-29T02:34:56.756Z,101778.56
2022-07-29T02:35:28.646Z,101771.50
2022-07-29T02:36:06.711Z,101769.91
2022-07-29T02:36:39.571Z,101771.09
2022-07-29T02:37:12.644Z,101761.25
2022-07-29T02:38:06.432Z,101772.25
2022-07-29T02:38:51.235Z,101768.34
2022-07-29T02:39:25.296Z,101768.34
2022-07-29T02:39:59.552Z,101766.38
2022-07-29T02:40:49.750Z,101767.19
2022-07-29T02:41:27.120Z,101769.91
2022-07-29T02:42:08.246Z,101767.56
2022-07-29T02:42:43.385Z,101771.09
2022-07-29T02:43:15.085Z,101767.94
2022-07-29T02:43:49.629Z,101765.97
2022-07-29T02:44:24.946Z,101760.50
2022-07-29T02:44:57.020Z,101762.84
2022-07-29T02:45:30.328Z,101765.59
2022-07-29T02:46:05.731Z,101765.97
2022-07-29T02:47:16.415Z,101767.16
2022-07-29T02:47:51.252Z,101764.00
2022-07-29T02:48:33.223Z,101766.75
2022-07-29T02:49:13.479Z,101759.69
2022-07-29T02:50:12.915Z,101766.75
2022-07-29T02:50:58.046Z,101769.88
2022-07-29T02:51:44.102Z,101764.38
2022-07-29T02:52:25.605Z,101769.88
2022-07-29T02:53:03.230Z,101765.19
2022-07-29T02:53:55.037Z,101765.19
2022-07-29T02:54:39.968Z,101761.66
2022-07-29T02:55:41.227Z,101769.88
2022-07-29T02:56:17.376Z,101765.19
2022-07-29T02:56:50.279Z,101761.66
2022-07-29T02:57:30.048Z,101767.13
2022-07-29T02:58:21.949Z,101765.19
2022-07-29T02:59:00.282Z,101757.72
2022-07-29T02:59:37.341Z,101767.94
2022-07-29T03:00:10.524Z,101759.28
2022-07-29T03:00:47.158Z,101761.66
2022-07-29T03:01:24.014Z,101761.25
2022-07-29T03:02:14.977Z,101764.00
2022-07-29T03:02:53.093Z,101765.19
2022-07-29T03:03:29.013Z,101771.47
2022-07-29T03:04:04.235Z,101766.34
2022-07-29T03:04:37.387Z,101759.28
2022-07-29T03:05:21.773Z,101762.44
2022-07-29T03:05:58.094Z,101763.97
2022-07-29T03:06:37.873Z,101767.53
2022-07-29T03:07:13.996Z,101765.53
2022-07-29T03:07:50.272Z,101770.66
2022-07-29T03:08:22.837Z,101767.13
2022-07-29T03:09:46.126Z,101762.78
2022-07-29T03:10:18.877Z,101764.38
2022-07-29T03:11:09.345Z,101761.63
2022-07-29T03:11:49.627Z,101761.63
2022-07-29T03:12:23.416Z,101753.75
2022-07-29T03:12:56.811Z,101766.34
2022-07-29T03:13:29.407Z,101763.97
2022-07-29T03:14:20.494Z,101767.53
2022-07-29T03:15:11.181Z,101756.91
2022-07-29T03:15:46.463Z,101756.53
2022-07-29T03:16:20.358Z,101759.66
2022-07-29T03:17:10.894Z,101755.34
2022-07-29T03:17:44.075Z,101768.28
2022-07-29T03:18:16.058Z,101756.50
2022-07-29T03:18:48.548Z,101752.97
2022-07-29T03:19:21.254Z,101756.50
2022-07-29T03:19:53.078Z,101756.09
2022-07-29T03:20:24.644Z,101752.97
2022-07-29T03:20:56.197Z,101757.31
2022-07-29T03:22:16.731Z,101751.00
2022-07-29T03:22:51.165Z,101751.81
2022-07-29T03:23:24.762Z,101760.44
2022-07-29T03:23:56.129Z,101755.72
2022-07-29T03:24:36.856Z,101752.19
2022-07-29T03:25:09.619Z,101752.56
2022-07-29T03:25:41.077Z,101754.16
2022-07-29T03:26:13.940Z,101754.56
2022-07-29T03:26:45.420Z,101752.19
2022-07-29T03:27:17.306Z,101745.91
2022-07-29T03:27:49.418Z,101745.91
2022-07-29T03:28:21.006Z,101750.22
2022-07-29T03:28:53.584Z,101750.22
2022-07-29T03:29:25.870Z,101749.44
2022-07-29T03:30:26.679Z,101743.16
2022-07-29T03:30:58.752Z,101750.22
2022-07-29T03:31:30.678Z,101743.94
2022-07-29T03:32:07.960Z,101742.78
2022-07-29T03:32:42.545Z,101751.81
2022-07-29T03:33:16.692Z,101745.53
2022-07-29T03:33:48.036Z,101738.84
2022-07-29T03:34:38.870Z,101737.28
2022-07-29T03:35:10.372Z,101743.94
2022-07-29T03:35:42.437Z,101741.19
2022-07-29T03:36:14.385Z,101746.69
2022-07-29T03:36:45.800Z,101745.50
2022-07-29T03:37:17.268Z,101742.75
2022-07-29T03:37:49.003Z,101740.00
2022-07-29T03:38:24.623Z,101744.34
2022-07-29T03:38:58.655Z,101747.06
2022-07-29T03:39:33.939Z,101745.50
2022-07-29T03:40:09.669Z,101738.44
2022-07-29T03:40:49.404Z,101743.53
2022-07-29T03:41:23.613Z,101743.16
2022-07-29T03:41:57.404Z,101750.22
2022-07-29T03:42:34.483Z,101745.91
2022-07-29T03:43:09.821Z,101744.72
2022-07-29T03:43:49.102Z,101740.78
2022-07-29T03:44:22.988Z,101736.88
2022-07-29T03:44:56.699Z,101737.66
2022-07-29T03:45:30.953Z,101738.84
2022-07-29T03:46:23.296Z,101734.50
2022-07-29T03:46:56.722Z,101740.78
2022-07-29T03:47:51.162Z,101735.69
2022-07-29T03:48:25.269Z,101738.44
2022-07-29T03:49:00.925Z,101735.31
2022-07-29T03:49:33.611Z,101730.59
2022-07-29T03:50:11.393Z,101720.00
2022-07-29T03:50:43.273Z,101732.94
2022-07-29T03:51:15.271Z,101717.25
2022-07-29T03:51:47.017Z,101727.44
2022-07-29T03:52:19.071Z,101729.00
2022-07-29T03:52:51.026Z,101731.75
2022-07-29T03:53:22.760Z,101725.47
2022-07-29T03:53:54.621Z,101723.53
2022-07-29T03:54:27.580Z,101716.44
2022-07-29T03:54:59.205Z,101717.63
2022-07-29T03:55:37.309Z,101723.53
2022-07-29T03:56:11.444Z,101723.53
2022-07-29T03:56:47.290Z,101728.25
2022-07-29T03:57:21.653Z,101730.19
2022-07-29T03:57:56.642Z,101725.09
2022-07-29T03:58:28.836Z,101726.25
2022-07-29T03:59:02.832Z,101724.28
2022-07-29T03:59:37.047Z,101726.63
2022-07-29T04:00:27.948Z,101728.19
2022-07-29T04:01:18.742Z,101729.38
2022-07-29T04:01:51.379Z,101732.53
2022-07-29T04:02:28.670Z,101731.75
2022-07-29T04:03:04.723Z,101732.13
2022-07-29T04:03:42.254Z,101728.19
2022-07-29T04:04:14.258Z,101731.34
2022-07-29T04:04:46.282Z,101731.72
2022-07-29T04:05:18.838Z,101734.47
2022-07-29T04:06:04.191Z,101739.97
2022-07-29T04:06:40.324Z,101729.75
2022-07-29T04:07:13.762Z,101734.06
2022-07-29T04:07:48.613Z,101737.63
2022-07-29T04:08:38.849Z,101734.47
2022-07-29T04:09:10.915Z,101736.44
2022-07-29T04:09:43.080Z,101733.69
2022-07-29T04:10:16.707Z,101729.75
2022-07-29T04:10:48.397Z,101734.06
2022-07-29T04:11:20.012Z,101725.84
2022-07-29T04:12:00.668Z,101730.13
2022-07-29T04:12:35.181Z,101723.47
2022-07-29T04:13:06.575Z,101731.72
2022-07-29T04:13:37.933Z,101725.84
2022-07-29T04:14:09.404Z,101728.59
2022-07-29T04:14:40.825Z,101723.47
2022-07-29T04:15:12.991Z,101725.81
2022-07-29T04:15:44.706Z,101726.19
2022-07-29T04:16:34.955Z,101730.53
2022-07-29T04:17:06.417Z,101730.91
2022-07-29T04:17:37.884Z,101726.59
2022-07-29T04:18:27.789Z,101725.78
2022-07-29T04:19:00.061Z,101722.66
2022-07-29T04:19:32.098Z,101732.47
2022-07-29T04:20:04.808Z,101731.31
2022-07-29T04:20:36.159Z,101726.59
2022-07-29T04:21:07.659Z,101726.19
2022-07-29T04:21:40.101Z,101728.16
2022-07-29T04:22:11.461Z,101733.28
2022-07-29T04:22:43.032Z,101730.13
2022-07-29T04:23:14.420Z,101730.53
2022-07-29T04:23:53.827Z,101725.81
2022-07-29T04:24:25.817Z,101735.63
2022-07-29T04:25:01.783Z,101729.34
2022-07-29T04:25:38.261Z,101727.78
2022-07-29T04:26:11.743Z,101729.75
2022-07-29T04:26:43.451Z,101725.41
2022-07-29T04:27:14.921Z,101716.78
2022-07-29T04:28:01.504Z,101723.44
2022-07-29T04:28:32.869Z,101728.16
2022-07-29T04:29:04.563Z,101728.16
2022-07-29T04:29:36.452Z,101725.03
2022-07-29T04:30:28.217Z,101719.91
2022-07-29T04:30:59.979Z,101722.28
2022-07-29T04:31:31.569Z,101721.09
2022-07-29T04:32:03.042Z,101719.91
2022-07-29T04:32:34.393Z,101721.50
2022-07-29T04:33:08.026Z,101725.81
2022-07-29T04:33:40.464Z,101721.50
2022-07-29T04:34:12.746Z,101720.72
2022-07-29T04:34:46.441Z,101723.06
2022-07-29T04:35:37.940Z,101725.03
2022-07-29T04:36:28.539Z,101727.38
2022-07-29T04:37:01.217Z,101726.19
2022-07-29T04:37:32.581Z,101728.16
2022-07-29T04:38:05.592Z,101725.03
2022-07-29T04:38:36.965Z,101730.13
2022-07-29T04:39:08.321Z,101723.44
2022-07-29T04:39:39.851Z,101725.78
2022-07-29T04:40:11.685Z,101727.38
2022-07-29T04:40:43.076Z,101726.59
2022-07-29T04:41:14.576Z,101723.44
2022-07-29T04:41:54.923Z,101725.44
2022-07-29T04:42:29.444Z,101723.06
2022-07-29T04:43:01.899Z,101724.22
2022-07-29T04:43:37.292Z,101727.75
2022-07-29T04:44:08.739Z,101731.28
2022-07-29T04:44:43.275Z,101730.91
2022-07-29T04:45:16.179Z,101728.94
2022-07-29T04:45:47.597Z,101726.97
2022-07-29T04:46:19.037Z,101718.72
2022-07-29T04:47:09.635Z,101728.53
2022-07-29T04:47:41.228Z,101728.94
2022-07-29T04:48:12.617Z,101728.53
2022-07-29T04:48:46.643Z,101726.19
2022-07-29T04:49:18.156Z,101726.59
2022-07-29T04:49:49.573Z,101727.38
2022-07-29T04:50:20.980Z,101725.00
2022-07-29T04:50:52.841Z,101730.50
2022-07-29T04:51:24.887Z,101734.03
2022-07-29T04:51:56.266Z,101727.38
2022-07-29T04:52:27.637Z,101737.56
2022-07-29T04:53:47.952Z,101730.50
2022-07-29T04:54:19.623Z,101733.25
2022-07-29T04:54:51.214Z,101731.66
2022-07-29T04:55:22.572Z,101739.91
2022-07-29T04:55:53.939Z,101733.66
2022-07-29T04:56:25.282Z,101734.84
2022-07-29T04:56:56.621Z,101732.09
2022-07-29T04:57:28.205Z,101737.94
2022-07-29T04:57:59.669Z,101733.66
2022-07-29T04:58:36.377Z,101734.41
2022-07-29T04:59:08.007Z,101734.41
2022-07-29T04:59:39.410Z,101732.09
2022-07-29T05:00:11.362Z,101729.34
2022-07-29T05:00:42.935Z,101728.94
2022-07-29T05:01:15.506Z,101721.47
2022-07-29T05:01:46.951Z,101729.31
2022-07-29T05:02:18.491Z,101726.56
2022-07-29T05:02:50.625Z,101723.81
2022-07-29T05:03:23.216Z,101728.16
2022-07-29T05:03:59.895Z,101724.22
2022-07-29T05:04:31.849Z,101726.59
2022-07-29T05:05:52.510Z,101726.97
2022-07-29T05:06:23.985Z,101734.03
2022-07-29T05:06:55.560Z,101723.44
2022-07-29T05:07:26.979Z,101720.69
2022-07-29T05:07:58.377Z,101725.00
2022-07-29T05:08:29.817Z,101722.25
2022-07-29T05:09:01.163Z,101731.66
2022-07-29T05:09:33.167Z,101726.97
2022-07-29T05:10:04.993Z,101727.38
2022-07-29T05:10:55.141Z,101733.25
2022-07-29T05:11:30.087Z,101728.53
2022-07-29T05:12:02.081Z,101732.88
2022-07-29T05:12:33.439Z,101724.22
2022-07-29T05:13:08.727Z,101735.22
2022-07-29T05:13:45.366Z,101731.28
2022-07-29T05:14:18.145Z,101733.25
2022-07-29T05:14:49.929Z,101727.75
2022-07-29T05:15:21.420Z,101733.66
2022-07-29T05:15:52.905Z,101731.69
2022-07-29T05:16:24.402Z,101732.47
2022-07-29T05:16:57.620Z,101730.53
2022-07-29T05:17:29.010Z,101730.53
2022-07-29T05:18:01.276Z,101733.28
2022-07-29T05:18:32.668Z,101720.31
2022-07-29T05:19:04.023Z,101726.63
2022-07-29T05:19:39.443Z,101729.38
2022-07-29T05:20:11.451Z,101732.13
2022-07-29T05:20:43.117Z,101726.22
2022-07-29T05:21:14.609Z,101730.91
2022-07-29T05:21:46.102Z,101720.31
2022-07-29T05:22:19.113Z,101723.84
2022-07-29T05:22:50.464Z,101721.88
2022-07-29T05:23:21.837Z,101724.66
2022-07-29T05:24:11.810Z,101723.84
2022-07-29T05:24:43.318Z,101726.63
2022-07-29T05:25:14.865Z,101732.91
2022-07-29T05:25:47.158Z,101725.47
2022-07-29T05:26:37.123Z,101730.94
2022-07-29T05:27:08.578Z,101736.84
2022-07-29T05:27:40.241Z,101739.59
2022-07-29T05:28:12.242Z,101738.41
2022-07-29T05:28:43.763Z,101741.97
2022-07-29T05:29:45.019Z,101736.47
2022-07-29T05:30:07.244Z,101738.41
2022-07-29T05:30:38.817Z,101735.69
2022-07-29T05:31:10.357Z,101740.00
2022-07-29T05:31:41.786Z,101738.81
2022-07-29T05:32:14.155Z,101743.53
2022-07-29T05:32:45.558Z,101745.09
2022-07-29T05:33:35.577Z,101743.94
2022-07-29T05:34:08.173Z,101749.03
2022-07-29T05:34:51.241Z,101750.22
2022-07-29T05:35:41.931Z,101746.31
2022-07-29T05:36:13.313Z,101746.69
2022-07-29T05:36:44.651Z,101743.94
2022-07-29T05:37:16.229Z,101747.06
2022-07-29T05:37:47.717Z,101750.22
2022-07-29T05:38:19.093Z,101754.94
2022-07-29T05:38:51.728Z,101747.88
2022-07-29T05:39:46.968Z,101754.94
2022-07-29T05:40:16.204Z,101749.81
2022-07-29T05:40:48.856Z,101751.41
2022-07-29T05:41:20.791Z,101745.50
2022-07-29T05:41:52.226Z,101746.69
2022-07-29T05:42:24.122Z,101751.78
2022-07-29T05:42:55.778Z,101748.66
2022-07-29T05:43:31.014Z,101749.06
2022-07-29T05:44:03.125Z,101752.63
2022-07-29T05:44:53.172Z,101756.56
2022-07-29T05:45:25.377Z,101751.84
2022-07-29T05:45:57.630Z,101752.63
2022-07-29T05:46:29.169Z,101745.56
2022-07-29T05:47:00.706Z,101751.06
2022-07-29T05:47:32.270Z,101745.19
2022-07-29T05:48:03.818Z,101748.72
2022-07-29T05:48:35.222Z,101745.97
2022-07-29T05:49:07.450Z,101744.00
2022-07-29T05:49:39.439Z,101742.03
2022-07-29T05:50:29.557Z,101740.88
2022-07-29T05:51:01.153Z,101748.34
2022-07-29T05:51:33.977Z,101755.81
2022-07-29T05:52:05.732Z,101748.34
2022-07-29T05:52:37.149Z,101751.88
2022-07-29T05:53:19.682Z,101747.16
2022-07-29T05:53:52.015Z,101746.38
2022-07-29T05:54:23.356Z,101748.75
2022-07-29T05:54:54.920Z,101749.53
2022-07-29T05:55:26.275Z,101752.66
2022-07-29T05:55:57.666Z,101749.91
2022-07-29T05:56:29.574Z,101753.06
2022-07-29T05:57:00.962Z,101755.03
2022-07-29T05:57:32.666Z,101753.84
2022-07-29T05:58:22.539Z,101752.28
2022-07-29T05:58:54.335Z,101756.63
2022-07-29T05:59:30.169Z,101751.91
2022-07-29T06:00:01.840Z,101749.59
2022-07-29T06:00:33.360Z,101754.28
2022-07-29T06:01:04.785Z,101757.44
2022-07-29T06:01:54.999Z,101756.25
2022-07-29T06:02:26.553Z,101757.06
2022-07-29T06:02:57.928Z,101753.13
2022-07-29T06:03:48.295Z,101758.59
2022-07-29T06:04:20.215Z,101763.72
2022-07-29T06:04:51.967Z,101759.81
2022-07-29T06:05:23.893Z,101766.09
2022-07-29T06:06:13.831Z,101755.09
2022-07-29T06:07:03.650Z,101764.13
2022-07-29T06:07:35.108Z,101763.34
2022-07-29T06:08:08.071Z,101756.28
2022-07-29T06:08:39.721Z,101754.31
2022-07-29T06:09:12.245Z,101751.97
2022-07-29T06:09:44.268Z,101758.66
2022-07-29T06:10:15.738Z,101759.44
2022-07-29T06:10:47.277Z,101762.56
2022-07-29T06:11:18.649Z,101754.31
2022-07-29T06:12:09.092Z,101758.25
2022-07-29T06:13:29.884Z,101756.69
2022-07-29T06:14:01.271Z,101751.56
2022-07-29T06:14:33.544Z,101757.06
2022-07-29T06:15:05.481Z,101757.06
2022-07-29T06:15:36.936Z,101752.34
2022-07-29T06:16:08.467Z,101759.44
2022-07-29T06:16:39.909Z,101755.09
2022-07-29T06:17:12.606Z,101759.03
2022-07-29T06:17:59.183Z,101747.66
2022-07-29T06:18:32.775Z,101753.94
2022-07-29T06:19:05.240Z,101762.19
2022-07-29T06:19:37.256Z,101755.91
2022-07-29T06:20:10.787Z,101755.94
2022-07-29T06:21:01.130Z,101750.44
2022-07-29T06:21:32.547Z,101754.75
2022-07-29T06:22:04.345Z,101760.25
2022-07-29T06:22:35.790Z,101753.56
2022-07-29T06:23:07.406Z,101759.44
2022-07-29T06:23:39.624Z,101754.75
2022-07-29T06:24:15.299Z,101771.63
2022-07-29T06:24:46.993Z,101761.81
2022-07-29T06:25:18.349Z,101776.75
2022-07-29T06:26:40.169Z,101777.94
2022-07-29T06:28:01.349Z,101785.78
2022-07-29T06:28:33.721Z,101790.09
2022-07-29T06:29:05.064Z,101790.09
2022-07-29T06:29:36.397Z,101792.84
2022-07-29T06:30:08.250Z,101795.59
2022-07-29T06:30:40.552Z,101794.81
2022-07-29T06:31:12.057Z,101795.59
2022-07-29T06:31:43.658Z,101796.38
2022-07-29T06:33:04.815Z,101794.81
2022-07-29T06:33:55.057Z,101795.59
2022-07-29T06:34:26.869Z,101793.59
2022-07-29T06:35:17.720Z,101790.84
2022-07-29T06:35:53.690Z,101792.44
2022-07-29T06:36:26.564Z,101786.56
2022-07-29T06:36:59.373Z,101796.78
2022-07-29T06:37:49.724Z,101792.81
2022-07-29T06:38:33.925Z,101796.34
2022-07-29T06:39:09.753Z,101795.56
2022-07-29T06:39:43.095Z,101793.63
2022-07-29T06:40:33.101Z,101787.72
2022-07-29T06:41:06.052Z,101794.78
2022-07-29T06:41:37.464Z,101794.38
2022-07-29T06:42:08.829Z,101791.63
2022-07-29T06:42:44.219Z,101785.72
2022-07-29T06:43:15.631Z,101790.47
2022-07-29T06:43:52.628Z,101787.72
2022-07-29T06:44:26.051Z,101788.09
2022-07-29T06:45:17.013Z,101790.09
2022-07-29T06:45:48.374Z,101779.84
2022-07-29T06:46:21.014Z,101785.34
2022-07-29T06:46:52.599Z,101783.41
2022-07-29T06:47:23.981Z,101785.75
2022-07-29T06:47:55.391Z,101785.78
2022-07-29T06:48:27.556Z,101780.25
2022-07-29T06:48:58.982Z,101786.97
2022-07-29T06:49:30.677Z,101785.00
2022-07-29T06:50:02.087Z,101779.53
2022-07-29T06:50:52.392Z,101784.22
2022-07-29T06:51:24.245Z,101776.38
2022-07-29T06:51:56.200Z,101775.19
2022-07-29T06:52:46.313Z,101783.47
2022-07-29T06:53:17.632Z,101781.50
2022-07-29T06:54:07.786Z,101784.66
2022-07-29T06:54:39.759Z,101793.69
2022-07-29T06:55:11.180Z,101788.19
2022-07-29T06:55:57.195Z,101790.53
2022-07-29T06:56:28.705Z,101790.94
2022-07-29T06:57:00.249Z,101798.38
2022-07-29T06:57:31.660Z,101792.88
2022-07-29T06:58:03.513Z,101803.91
2022-07-29T06:58:36.239Z,101792.88
2022-07-29T06:59:09.293Z,101797.22
2022-07-29T06:59:41.009Z,101795.63
2022-07-29T07:00:13.188Z,101795.63
2022-07-29T07:02:44.634Z,101793.69
2022-07-29T07:03:17.425Z,101793.28
2022-07-29T07:03:48.842Z,101787.78